createdAt,value
2019-02-21T00:00:55.938Z,76.70
2019-02-21T00:03:27.936Z,77.51
2019-02-21T00:05:59.932Z,77.46
2019-02-21T00:08:31.924Z,77.73
2019-02-21T00:11:03.922Z,77.74
2019-02-21T00:13:35.964Z,77.59
2019-02-21T00:16:07.938Z,77.29
2019-02-21T00:18:39.937Z,76.83
2019-02-21T00:21:11.935Z,77.04
2019-02-21T00:23:43.944Z,76.96
2019-02-21T00:26:15.931Z,77.53
2019-02-21T00:28:47.935Z,77.67
2019-02-21T00:31:19.965Z,77.87
2019-02-21T00:33:51.936Z,78.27
2019-02-21T00:36:23.928Z,78.28
2019-02-21T00:38:55.884Z,77.89
2019-02-21T00:41:27.906Z,77.35
2019-02-21T00:43:59.887Z,77.08
2019-02-21T00:46:31.908Z,77.37
2019-02-21T00:49:03.890Z,77.43
2019-02-21T00:51:35.890Z,77.52
2019-02-21T00:54:07.897Z,77.39
2019-02-21T00:56:39.899Z,77.45
2019-02-21T00:59:11.891Z,77.31
2019-02-21T01:01:43.872Z,77.61
2019-02-21T01:04:15.841Z,77.65
2019-02-21T01:06:47.847Z,77.71
2019-02-21T01:09:19.808Z,78.03
2019-02-21T01:11:51.917Z,77.37
2019-02-21T01:14:23.888Z,77.08
2019-02-21T01:16:55.917Z,77.14
2019-02-21T01:19:27.853Z,77.32
2019-02-21T01:21:59.869Z,77.41
2019-02-21T01:24:31.815Z,77.10
2019-02-21T01:27:03.847Z,77.05
2019-02-21T01:29:35.831Z,77.02
2019-02-21T01:32:07.802Z,77.16
2019-02-21T01:34:39.759Z,77.17
2019-02-21T01:37:11.758Z,76.46
2019-02-21T01:39:43.720Z,76.38
2019-02-21T01:42:15.726Z,76.20
2019-02-21T01:44:47.864Z,76.45
2019-02-21T01:47:19.898Z,76.93
2019-02-21T01:49:51.853Z,77.10
2019-02-21T01:52:23.846Z,77.30
2019-02-21T01:54:55.815Z,77.54
2019-02-21T01:57:28.629Z,77.56
2019-02-21T02:00:00.789Z,77.47
2019-02-21T02:02:32.758Z,76.86
2019-02-21T02:05:05.421Z,77.10
2019-02-21T02:07:37.891Z,77.17
2019-02-21T02:10:09.979Z,77.12
2019-02-21T02:12:41.979Z,77.10
2019-02-21T02:15:14.001Z,76.73
2019-02-21T02:17:46.020Z,76.57
2019-02-21T02:20:18.048Z,77.15
2019-02-21T02:22:50.046Z,77.49
2019-02-21T02:25:22.038Z,77.53
2019-02-21T02:27:54.011Z,77.66
2019-02-21T02:30:25.999Z,77.87
2019-02-21T02:32:57.997Z,78.14
2019-02-21T02:35:29.986Z,77.93
2019-02-21T02:38:01.970Z,77.93
2019-02-21T02:40:33.961Z,78.05
2019-02-21T02:43:05.911Z,78.32
2019-02-21T02:45:37.905Z,78.62
2019-02-21T02:48:09.868Z,78.77
2019-02-21T02:50:41.966Z,78.66
2019-02-21T02:53:13.923Z,78.82
2019-02-21T02:55:45.902Z,79.10
2019-02-21T02:58:17.870Z,78.82
2019-02-21T03:04:30.043Z,78.10
2019-02-21T03:07:02.019Z,77.90
2019-02-21T03:09:34.006Z,78.14
2019-02-21T03:12:05.974Z,78.21
2019-02-21T03:14:37.934Z,78.40
2019-02-21T03:17:09.901Z,78.54
2019-02-21T03:19:41.839Z,79.00
2019-02-21T03:22:13.822Z,79.22
2019-02-21T03:24:45.753Z,79.41
2019-02-21T03:27:17.778Z,79.67
2019-02-21T03:29:49.759Z,79.39
2019-02-21T03:32:21.743Z,79.21
2019-02-21T03:34:53.686Z,78.85
2019-02-21T03:37:25.670Z,78.62
2019-02-21T03:39:57.644Z,78.32
2019-02-21T03:42:29.627Z,78.22
2019-02-21T03:45:01.571Z,77.72
2019-02-21T03:47:33.557Z,77.70
2019-02-21T03:50:05.621Z,77.80
2019-02-21T03:52:37.594Z,78.13
2019-02-21T03:55:09.527Z,78.50
2019-02-21T03:57:41.511Z,78.60
2019-02-21T04:03:32.767Z,78.37
2019-02-21T04:06:04.716Z,78.59
2019-02-21T04:08:36.693Z,78.62
2019-02-21T04:11:08.649Z,78.13
2019-02-21T04:13:40.667Z,78.14
2019-02-21T04:16:12.642Z,77.85
2019-02-21T04:18:44.620Z,77.85
2019-02-21T04:21:16.592Z,77.66
2019-02-21T04:23:48.568Z,78.18
2019-02-21T04:26:20.507Z,78.39
2019-02-21T04:28:52.487Z,78.80
2019-02-21T04:31:24.442Z,79.12
2019-02-21T04:33:56.416Z,79.12
2019-02-21T04:36:28.388Z,78.97
2019-02-21T04:39:00.386Z,78.99
2019-02-21T04:41:32.344Z,78.86
2019-02-21T04:44:04.354Z,79.15
2019-02-21T04:46:36.294Z,79.29
2019-02-21T04:49:08.370Z,79.33
2019-02-21T04:51:40.333Z,79.37
2019-02-21T04:54:12.329Z,79.73
2019-02-21T04:56:44.289Z,79.74
2019-02-21T04:59:16.250Z,80.10
2019-02-21T05:01:48.206Z,80.35
2019-02-21T05:04:20.191Z,80.34
2019-02-21T05:06:52.280Z,79.39
2019-02-21T05:09:26.916Z,79.02
2019-02-21T05:11:58.170Z,78.45
2019-02-21T05:14:30.178Z,78.53
2019-02-21T05:17:02.175Z,79.01
2019-02-21T05:19:34.193Z,79.35
2019-02-21T05:22:06.185Z,79.46
2019-02-21T05:24:38.221Z,79.81
2019-02-21T05:27:22.765Z,79.91
2019-02-21T05:29:54.926Z,80.29
2019-02-21T05:32:55.319Z,80.04
2019-02-21T05:35:36.956Z,80.00
2019-02-21T05:38:28.492Z,79.87
2019-02-21T05:41:18.988Z,80.03
2019-02-21T05:44:10.552Z,79.75
2019-02-21T05:46:55.837Z,79.62
2019-02-21T05:49:38.086Z,79.71
2019-02-21T05:52:20.792Z,80.03
2019-02-21T05:54:59.571Z,80.20
2019-02-21T05:57:40.169Z,79.28
2019-02-21T06:00:29.323Z,79.14
2019-02-21T06:03:19.457Z,78.92
2019-02-21T06:06:09.958Z,78.57
2019-02-21T06:08:58.108Z,77.75
2019-02-21T06:11:55.516Z,78.17
2019-02-21T06:14:44.054Z,78.52
2019-02-21T06:17:50.723Z,78.49
2019-02-21T06:20:45.054Z,78.85
2019-02-21T06:23:39.540Z,79.04
2019-02-21T06:26:18.926Z,79.16
2019-02-21T06:29:13.482Z,78.61
2019-02-21T06:31:45.436Z,78.14
2019-02-21T06:34:17.396Z,77.83
2019-02-21T06:36:49.359Z,78.57
2019-02-21T06:39:21.365Z,78.74
2019-02-21T06:41:59.564Z,78.50
2019-02-21T06:44:27.221Z,78.69
2019-02-21T06:46:59.198Z,78.67
2019-02-21T06:49:32.788Z,78.85
2019-02-21T06:52:05.123Z,78.37
2019-02-21T06:54:37.117Z,78.47
2019-02-21T06:57:09.136Z,78.56
2019-02-21T06:59:44.509Z,78.64
2019-02-21T07:02:15.037Z,78.56
2019-02-21T07:04:47.019Z,78.10
2019-02-21T07:07:19.017Z,77.42
2019-02-21T07:09:51.021Z,77.87
2019-02-21T07:12:23.028Z,77.57
2019-02-21T07:14:55.068Z,77.88
2019-02-21T07:17:27.575Z,78.22
2019-02-21T07:20:01.510Z,78.42
2019-02-21T07:22:33.451Z,78.10
2019-02-21T07:25:25.064Z,77.74
2019-02-21T07:27:58.348Z,77.00
2019-02-21T07:30:30.543Z,77.26
2019-02-21T07:33:03.843Z,76.89
2019-02-21T07:35:35.869Z,75.83
2019-02-21T07:38:07.825Z,75.97
2019-02-21T07:40:39.857Z,76.42
2019-02-21T07:43:12.899Z,76.41
2019-02-21T07:45:45.066Z,75.68
2019-02-21T07:48:17.140Z,75.71
2019-02-21T07:50:49.128Z,75.20
2019-02-21T07:53:21.088Z,75.16
2019-02-21T07:55:55.690Z,74.49
2019-02-21T07:58:26.955Z,73.84
2019-02-21T08:00:58.975Z,73.38
2019-02-21T08:03:43.473Z,73.32
2019-02-21T08:06:04.878Z,72.90
2019-02-21T08:08:36.882Z,73.10
2019-02-21T08:11:08.890Z,72.68
2019-02-21T08:13:40.870Z,72.53
2019-02-21T08:16:12.925Z,71.96
2019-02-21T08:18:44.933Z,71.49
2019-02-21T08:21:16.971Z,70.23
2019-02-21T08:23:50.882Z,68.88
2019-02-21T08:26:22.832Z,68.29
2019-02-21T08:28:54.793Z,67.93
2019-02-21T08:31:26.785Z,66.57
2019-02-21T08:34:05.245Z,66.02
2019-02-21T08:36:37.235Z,65.16
2019-02-21T08:39:09.587Z,65.25
2019-02-21T08:41:41.587Z,65.27
2019-02-21T08:44:13.548Z,64.69
2019-02-21T08:46:45.551Z,63.50
2019-02-21T08:49:17.541Z,63.53
2019-02-21T08:51:49.534Z,63.75
2019-02-21T08:54:21.528Z,64.04
2019-02-21T08:56:54.028Z,63.85
2019-02-21T08:59:26.029Z,62.63
2019-02-21T09:01:58.066Z,62.41
2019-02-21T09:04:30.079Z,61.67
2019-02-21T09:07:02.113Z,61.68
2019-02-21T09:09:34.148Z,61.65
2019-02-21T09:12:06.134Z,61.25
2019-02-21T09:14:38.122Z,61.30
2019-02-21T09:17:10.121Z,60.15
2019-02-21T09:19:42.099Z,59.79
2019-02-21T09:22:14.094Z,59.55
2019-02-21T09:24:46.083Z,59.31
2019-02-21T09:27:18.073Z,59.00
2019-02-21T09:29:50.087Z,59.03
2019-02-21T09:32:22.081Z,58.93
2019-02-21T09:34:54.067Z,58.50
2019-02-21T09:37:26.028Z,59.19
2019-02-21T09:39:58.019Z,59.16
2019-02-21T09:42:29.999Z,58.76
2019-02-21T09:45:01.995Z,57.70
2019-02-21T09:47:33.949Z,57.50
2019-02-21T09:50:06.528Z,56.33
2019-02-21T09:52:38.513Z,56.33
2019-02-21T09:55:11.391Z,55.46
2019-02-21T09:57:43.366Z,54.56
2019-02-21T10:00:17.139Z,54.66
2019-02-21T10:02:49.116Z,54.29
2019-02-21T10:05:21.109Z,54.87
2019-02-21T10:07:53.050Z,54.89
2019-02-21T10:10:25.084Z,55.22
2019-02-21T10:12:57.078Z,55.32
2019-02-21T10:15:31.423Z,55.34
2019-02-21T10:18:02.971Z,54.58
2019-02-21T10:20:35.018Z,54.28
2019-02-21T10:23:06.999Z,54.11
2019-02-21T10:25:39.021Z,53.70
2019-02-21T10:28:10.972Z,54.28
2019-02-21T10:30:43.003Z,54.07
2019-02-21T10:33:14.959Z,53.34
2019-02-21T10:35:46.952Z,52.96
2019-02-21T10:38:18.969Z,52.37
2019-02-21T10:40:50.972Z,52.33
2019-02-21T10:43:22.985Z,52.09
2019-02-21T10:45:54.997Z,51.89
2019-02-21T10:48:26.981Z,51.89
2019-02-21T10:50:58.980Z,51.49
2019-02-21T10:53:30.964Z,51.72
2019-02-21T10:56:02.962Z,52.03
2019-02-21T10:58:34.968Z,51.94
2019-02-21T11:01:06.981Z,51.90
2019-02-21T11:03:38.965Z,51.69
2019-02-21T11:06:10.957Z,51.63
2019-02-21T11:08:42.984Z,51.62
2019-02-21T11:11:17.098Z,51.61
2019-02-21T11:13:48.927Z,51.51
2019-02-21T11:16:20.951Z,51.34
2019-02-21T11:18:52.940Z,51.56
2019-02-21T11:21:24.991Z,51.34
2019-02-21T11:23:56.960Z,51.12
2019-02-21T11:26:28.975Z,50.98
2019-02-21T11:29:02.078Z,51.06
2019-02-21T11:31:34.073Z,50.69
2019-02-21T11:34:06.111Z,50.60
2019-02-21T11:36:38.124Z,50.84
2019-02-21T11:39:10.246Z,50.27
2019-02-21T11:41:43.854Z,50.41
2019-02-21T11:44:16.022Z,50.80
2019-02-21T11:46:48.021Z,50.55
2019-02-21T11:49:20.006Z,50.74
2019-02-21T11:51:52.017Z,50.68
2019-02-21T11:54:26.716Z,49.34
2019-02-21T11:56:57.975Z,48.73
2019-02-21T11:59:30.048Z,48.62
2019-02-21T12:02:02.033Z,48.65
2019-02-21T12:04:35.939Z,48.81
2019-02-21T12:07:07.930Z,49.11
2019-02-21T12:09:39.974Z,48.87
2019-02-21T12:12:11.963Z,48.06
2019-02-21T12:14:44.006Z,48.59
2019-02-21T12:17:16.005Z,47.85
2019-02-21T12:19:47.977Z,47.97
2019-02-21T12:22:21.109Z,48.37
2019-02-21T12:24:53.210Z,47.63
2019-02-21T12:27:26.304Z,47.20
2019-02-21T12:29:58.314Z,47.74
2019-02-21T12:32:30.315Z,46.49
2019-02-21T12:35:02.356Z,46.72
2019-02-21T12:37:34.466Z,46.76
2019-02-21T12:40:08.368Z,46.71
2019-02-21T12:42:40.444Z,46.95
2019-02-21T12:45:14.367Z,47.13
2019-02-21T12:47:50.845Z,46.66
2019-02-21T12:50:20.279Z,46.14
2019-02-21T12:52:52.272Z,46.60
2019-02-21T12:55:29.486Z,46.73
2019-02-21T12:57:58.238Z,46.83
2019-02-21T13:00:30.259Z,47.58
2019-02-21T13:03:02.376Z,48.17
2019-02-21T13:05:40.955Z,48.20
2019-02-21T13:08:08.654Z,48.11
2019-02-21T13:10:40.688Z,48.59
2019-02-21T13:13:12.665Z,48.85
2019-02-21T13:15:44.683Z,47.94
2019-02-21T13:18:16.674Z,48.33
2019-02-21T13:20:48.690Z,48.31
2019-02-21T13:23:22.494Z,48.17
2019-02-21T13:25:54.534Z,47.85
2019-02-21T13:28:26.516Z,47.45
2019-02-21T13:30:58.512Z,47.90
2019-02-21T13:33:30.497Z,48.28
2019-02-21T13:36:02.648Z,48.38
2019-02-21T13:38:34.650Z,48.46
2019-02-21T13:41:06.688Z,48.64
2019-02-21T13:43:38.676Z,48.54
2019-02-21T13:46:10.679Z,48.49
2019-02-21T13:48:42.681Z,48.84
2019-02-21T13:51:14.653Z,48.44
2019-02-21T13:53:46.888Z,48.64
2019-02-21T13:56:18.902Z,48.52
2019-02-21T13:58:50.942Z,47.57
2019-02-21T14:01:22.903Z,47.14
2019-02-21T14:03:56.718Z,47.98
2019-02-21T14:06:28.862Z,47.94
2019-02-21T14:09:00.865Z,47.83
2019-02-21T14:11:32.961Z,47.81
2019-02-21T14:14:05.052Z,48.24
2019-02-21T14:16:46.086Z,48.27
2019-02-21T14:19:11.133Z,48.75
2019-02-21T14:21:43.848Z,48.80
2019-02-21T14:24:16.003Z,49.34
2019-02-21T14:26:48.300Z,49.21
2019-02-21T14:29:20.417Z,49.51
2019-02-21T14:31:52.447Z,49.75
2019-02-21T14:34:24.493Z,49.88
2019-02-21T14:36:56.470Z,50.65
2019-02-21T14:39:28.637Z,50.89
2019-02-21T14:42:00.666Z,51.21
2019-02-21T14:44:32.846Z,51.59
2019-02-21T14:47:08.062Z,51.28
2019-02-21T14:49:40.137Z,51.19
2019-02-21T14:52:12.150Z,51.60
2019-02-21T14:54:44.154Z,51.58
2019-02-21T14:57:16.421Z,51.58
2019-02-21T14:59:50.299Z,51.65
2019-02-21T15:02:22.409Z,51.96
2019-02-21T15:04:54.396Z,52.28
2019-02-21T15:07:26.539Z,52.28
2019-02-21T15:09:58.600Z,52.51
2019-02-21T15:12:30.622Z,52.53
2019-02-21T15:15:03.146Z,52.66
2019-02-21T15:17:37.177Z,52.27
2019-02-21T15:20:10.451Z,52.15
2019-02-21T15:22:42.586Z,52.01
2019-02-21T15:25:14.584Z,52.15
2019-02-21T15:27:46.804Z,52.09
2019-02-21T15:30:20.826Z,52.10
2019-02-21T15:32:52.919Z,52.33
2019-02-21T15:35:25.045Z,52.51
2019-02-21T15:37:57.182Z,52.73
2019-02-21T15:40:29.241Z,52.87
2019-02-21T15:43:01.521Z,52.84
2019-02-21T15:45:33.532Z,53.19
2019-02-21T15:48:07.390Z,53.08
2019-02-21T15:50:39.987Z,52.91
2019-02-21T15:53:12.062Z,53.28
2019-02-21T15:55:44.085Z,53.35
2019-02-21T15:58:16.099Z,53.59
2019-02-21T16:00:48.123Z,53.47
2019-02-21T16:03:20.174Z,53.82
2019-02-21T16:05:52.355Z,54.11
2019-02-21T16:08:26.197Z,54.41
2019-02-21T16:10:58.227Z,54.74
2019-02-21T16:13:30.734Z,54.85
2019-02-21T16:16:02.915Z,54.78
2019-02-21T16:18:35.229Z,54.86
2019-02-21T16:21:07.296Z,55.07
2019-02-21T16:23:39.321Z,55.35
2019-02-21T16:26:11.354Z,55.65
2019-02-21T16:28:43.395Z,55.87
2019-02-21T16:31:16.520Z,56.13
2019-02-21T16:33:48.547Z,56.25
2019-02-21T16:36:22.358Z,56.54
2019-02-21T16:38:54.481Z,56.74
2019-02-21T16:41:36.068Z,56.84
2019-02-21T16:44:00.662Z,57.08
2019-02-21T16:46:32.819Z,57.33
2019-02-21T16:49:04.955Z,57.68
2019-02-21T16:51:37.129Z,57.89
2019-02-21T16:54:10.368Z,58.22
2019-02-21T16:56:42.379Z,58.42
2019-02-21T16:59:14.569Z,58.78
2019-02-21T17:01:46.646Z,59.00
2019-02-21T17:04:20.547Z,59.23
2019-02-21T17:06:52.625Z,59.49
2019-02-21T17:09:24.652Z,60.14
2019-02-21T17:11:56.802Z,60.76
2019-02-21T17:14:28.860Z,61.36
2019-02-21T17:17:00.893Z,61.67
2019-02-21T17:19:32.992Z,61.98
2019-02-21T17:22:05.021Z,62.26
2019-02-21T17:24:37.032Z,62.44
2019-02-21T17:27:09.163Z,62.79
2019-02-21T17:29:41.163Z,62.94
2019-02-21T17:32:13.194Z,63.02
2019-02-21T17:37:58.442Z,63.71
2019-02-21T17:40:30.516Z,64.02
2019-02-21T17:43:02.554Z,64.29
2019-02-21T17:45:34.566Z,64.47
2019-02-21T17:48:06.691Z,64.63
2019-02-21T17:50:38.783Z,64.94
2019-02-21T17:53:10.854Z,65.19
2019-02-21T17:55:42.926Z,65.28
2019-02-21T17:58:17.168Z,65.66
2019-02-21T18:00:48.939Z,65.97
2019-02-21T18:03:21.028Z,66.18
2019-02-21T18:05:55.902Z,66.39
2019-02-21T18:08:27.064Z,66.64
2019-02-21T18:10:59.141Z,66.90
2019-02-21T18:13:31.249Z,67.26
2019-02-21T18:16:03.322Z,67.45
2019-02-21T18:18:35.398Z,67.57
2019-02-21T18:21:08.337Z,67.92
2019-02-21T18:23:41.523Z,68.21
2019-02-21T18:26:16.492Z,68.11
2019-02-21T18:28:48.611Z,68.26
2019-02-21T18:31:20.687Z,68.41
2019-02-21T18:33:52.787Z,68.65
2019-02-21T18:36:24.853Z,68.92
2019-02-21T18:38:56.997Z,69.16
2019-02-21T18:41:29.164Z,69.15
2019-02-21T18:44:01.292Z,69.32
2019-02-21T18:46:33.425Z,69.37
2019-02-21T18:49:05.580Z,69.29
2019-02-21T18:51:37.675Z,69.31
2019-02-21T18:54:09.769Z,68.88
2019-02-21T18:56:41.937Z,68.79
2019-02-21T18:59:14.177Z,68.45
2019-02-21T19:01:46.300Z,68.47
2019-02-21T19:04:18.428Z,68.52
2019-02-21T19:06:50.581Z,68.70
2019-02-21T19:09:22.721Z,68.66
2019-02-21T19:11:54.861Z,68.82
2019-02-21T19:14:27.107Z,68.96
2019-02-21T19:16:59.211Z,69.13
2019-02-21T19:19:31.343Z,69.21
2019-02-21T19:22:03.444Z,69.23
2019-02-21T19:24:37.055Z,69.23
2019-02-21T19:27:09.472Z,69.30
2019-02-21T19:29:41.688Z,69.43
2019-02-21T19:32:13.819Z,69.57
2019-02-21T19:34:45.883Z,69.76
2019-02-21T19:37:17.974Z,69.83
2019-02-21T19:39:51.223Z,69.91
2019-02-21T19:42:23.391Z,69.96
2019-02-21T19:44:55.415Z,69.87
2019-02-21T19:47:27.561Z,70.10
2019-02-21T19:49:59.766Z,70.16
2019-02-21T19:52:31.772Z,70.24
2019-02-21T19:55:05.171Z,70.21
2019-02-21T19:57:37.439Z,70.14
2019-02-21T20:00:13.710Z,69.99
2019-02-21T20:02:45.850Z,70.10
2019-02-21T20:05:17.888Z,70.15
2019-02-21T20:07:50.168Z,70.13
2019-02-21T20:10:22.508Z,70.16
2019-02-21T20:12:56.620Z,70.32
2019-02-21T20:15:28.706Z,70.36
2019-02-21T20:18:01.906Z,70.54
2019-02-21T20:20:33.931Z,70.66
2019-02-21T20:23:06.124Z,70.69
2019-02-21T20:25:39.426Z,70.88
2019-02-21T20:28:11.629Z,71.23
2019-02-21T20:30:43.746Z,71.42
2019-02-21T20:33:15.979Z,71.57
2019-02-21T20:35:49.269Z,71.88
2019-02-21T20:38:31.548Z,71.92
2019-02-21T20:40:56.942Z,71.93
2019-02-21T20:43:29.290Z,71.98
2019-02-21T20:46:01.656Z,71.99
2019-02-21T20:48:33.754Z,72.07
2019-02-21T20:51:05.834Z,72.04
2019-02-21T20:53:38.035Z,71.99
2019-02-21T20:56:10.151Z,71.89
2019-02-21T20:58:42.274Z,71.92
2019-02-21T21:01:15.099Z,71.97
2019-02-21T21:03:47.186Z,72.04
2019-02-21T21:06:19.383Z,72.15
2019-02-21T21:08:51.661Z,72.25
2019-02-21T21:11:23.709Z,72.23
2019-02-21T21:13:55.774Z,72.19
2019-02-21T21:16:27.812Z,72.32
2019-02-21T21:18:59.911Z,72.09
2019-02-21T21:21:32.053Z,72.20
2019-02-21T21:24:04.218Z,72.16
2019-02-21T21:26:36.371Z,72.07
2019-02-21T21:29:08.380Z,72.14
2019-02-21T21:31:40.440Z,72.26
2019-02-21T21:34:12.477Z,72.30
2019-02-21T21:36:44.643Z,72.50
2019-02-21T21:39:16.909Z,72.81
2019-02-21T21:41:49.109Z,72.89
2019-02-21T21:44:21.267Z,72.95
2019-02-21T21:46:53.354Z,72.96
2019-02-21T21:49:25.426Z,73.12
2019-02-21T21:51:57.510Z,73.32
2019-02-21T21:54:29.618Z,73.32
2019-02-21T21:57:01.884Z,73.17
2019-02-21T21:59:33.904Z,72.81
2019-02-21T22:02:05.951Z,72.38
2019-02-21T22:04:37.962Z,72.39
2019-02-21T22:07:11.083Z,72.57
2019-02-21T22:09:43.159Z,72.78
2019-02-21T22:12:15.216Z,72.71
2019-02-21T22:14:47.238Z,72.81
2019-02-21T22:17:21.134Z,72.96
2019-02-21T22:19:53.190Z,73.02
2019-02-21T22:22:25.237Z,73.05
2019-02-21T22:24:58.412Z,72.91
2019-02-21T22:27:30.508Z,72.97
2019-02-21T22:30:23.961Z,72.84
2019-02-21T22:32:56.391Z,72.79
2019-02-21T22:35:28.509Z,72.92
2019-02-21T22:38:00.672Z,72.91
2019-02-21T22:40:32.635Z,72.76
2019-02-21T22:43:04.654Z,72.76
2019-02-21T22:45:36.742Z,72.90
2019-02-21T22:48:08.744Z,72.99
2019-02-21T22:50:40.744Z,72.69
2019-02-21T22:53:12.750Z,72.95
2019-02-21T22:55:44.745Z,73.13
2019-02-21T22:58:16.755Z,73.13
2019-02-21T23:00:58.769Z,73.13
2019-02-21T23:03:42.623Z,73.09
2019-02-21T23:06:39.274Z,73.12
2019-02-21T23:09:27.466Z,73.18
2019-02-21T23:11:55.823Z,73.01
2019-02-21T23:14:28.137Z,73.15
2019-02-21T23:17:00.102Z,73.15
2019-02-21T23:19:32.105Z,73.32
2019-02-21T23:22:04.084Z,73.16
2019-02-21T23:24:36.083Z,73.23
2019-02-21T23:27:08.037Z,73.37
2019-02-21T23:29:40.044Z,73.41
2019-02-21T23:32:12.013Z,73.25
2019-02-21T23:34:44.630Z,73.29
2019-02-21T23:37:16.597Z,73.30
2019-02-21T23:39:48.570Z,73.40
2019-02-21T23:42:22.671Z,73.52
2019-02-21T23:44:54.617Z,73.43
2019-02-21T23:47:26.617Z,73.69
2019-02-21T23:49:58.614Z,73.68
2019-02-21T23:52:30.596Z,73.67
2019-02-21T23:55:02.733Z,73.69
2019-02-21T23:57:34.691Z,73.72
